Search for airport 
image banner adimage banner adimage banner ad
image banner ad

55CA - Naval Hospital Heliport

Located in Oakland, United States

ICAO - 55CA, IATA -

Data provided by Airmate  

General information

Coordinates: N37°41'40" W121°52'51"
Elevation is 422 feet MSL.
 
View others Airports in California

Operational data

Special qualification required
Current time UTC:
Current local time:
Weather at : KLVK - Livermore Muni ( 5 km )
METAR: KLVK 211318Z AUTO 33004KT 10SM BKN012 14/12 A2990 RMK AO2 T01390117
TAF: KLVK 211327Z 2113/2212 30007KT P6SM FEW012 TEMPO 2113/2115 BKN012 FM211500 29012KT P6SM SKC FM220200 30005KT P6SM SKC
View NOTAMs / SUP AIP / TFR affecting this airport [VIEW]
Communications frequencies: [VIEW]

Runways:

Airport contact information

Address: Oakland United States

Satellite view of 55CA